Time;durP1;ratioP1;P1;durP2;ratioP2;P2;SDS_P1;SDS_P2;PMS_P1;PMS_P2;Temp;Humidity;BMP_temperature;BMP_pressure;BME280_temperature;BME280_humidity;BME280_pressure;Samples;Min_cycle;Max_cycle;Signal;HPM_P1;HPM_P2
2022/08/06 00:00:53;;;;;;;25.90;8.43;;;22.20;48.80;;;;;;4969348;28;20460;-70
2022/08/06 00:03:19;;;;;;;14.17;7.10;;;22.30;50.40;;;;;;4970250;28;20438;-71
2022/08/06 00:05:45;;;;;;;17.87;6.93;;;22.60;44.50;;;;;;4965408;28;20193;-71
2022/08/06 00:08:10;;;;;;;16.03;6.37;;;22.70;53.20;;;;;;4969133;28;20188;-71
2022/08/06 00:10:36;;;;;;;14.90;7.60;;;22.90;50.90;;;;;;4971211;28;20934;-71
2022/08/06 00:13:02;;;;;;;14.97;7.20;;;23.10;54.30;;;;;;4968561;28;20186;-73
2022/08/06 00:15:28;;;;;;;16.97;7.60;;;23.30;52.80;;;;;;4971700;28;20551;-71
2022/08/06 00:17:54;;;;;;;12.93;6.47;;;;;;;;;;4972399;28;20517;-72
2022/08/06 00:20:20;;;;;;;18.30;7.40;;;;;;;;;;4969860;28;20214;-72
2022/08/06 00:22:46;;;;;;;16.03;7.20;;;;;;;;;;4963826;28;20466;-73
2022/08/06 00:25:14;;;;;;;14.80;6.90;;;;;;;;;;4971462;28;20486;-72
2022/08/06 00:27:40;;;;;;;13.23;5.47;;;;;;;;;;4968512;28;20456;-71
2022/08/06 00:30:07;;;;;;;13.07;5.70;;;22.30;43.20;;;;;;4969217;28;20521;-70
2022/08/06 00:32:33;;;;;;;15.20;6.07;;;;;;;;;;4971294;28;20447;-73
2022/08/06 00:34:59;;;;;;;13.77;5.73;;;22.30;45.50;;;;;;4969669;28;20441;-71
2022/08/06 00:37:28;;;;;;;13.87;6.20;;;;;;;;;;4970727;28;20445;-72
2022/08/06 00:39:54;;;;;;;13.60;6.03;;;22.50;54.40;;;;;;4971824;28;20250;-71
2022/08/06 00:42:20;;;;;;;12.57;6.50;;;22.80;51.50;;;;;;4967597;28;20437;-71
2022/08/06 00:44:46;;;;;;;12.67;6.83;;;22.90;52.00;;;;;;4970972;28;20443;-70
2022/08/06 00:47:11;;;;;;;15.17;6.83;;;23.10;52.40;;;;;;4972127;28;20212;-71
2022/08/06 00:49:37;;;;;;;14.23;6.90;;;23.20;52.70;;;;;;4967890;28;20610;-71
2022/08/06 00:52:03;;;;;;;16.40;6.50;;;;;;;;;;4970907;28;20191;-71
2022/08/06 00:54:29;;;;;;;14.63;7.20;;;;;;;;;;4971845;28;20191;-72
2022/08/06 00:56:55;;;;;;;16.30;7.70;;;;;;;;;;4966247;28;20459;-73
2022/08/06 00:59:21;;;;;;;22.27;7.70;;;;;;;;;;4970187;28;20464;-72
2022/08/06 01:01:47;;;;;;;17.03;7.67;;;;;;;;;;4970464;28;20434;-72
2022/08/06 01:04:13;;;;;;;21.83;7.57;;;;;;;;;;4969143;28;20441;-73
2022/08/06 01:06:39;;;;;;;15.27;7.27;;;;;;;;;;4959488;28;20427;-73
2022/08/06 01:09:05;;;;;;;11.20;6.53;;;23.40;49.90;;;;;;4961122;28;20478;-71
2022/08/06 01:11:31;;;;;;;12.83;7.10;;;23.40;50.30;;;;;;4971345;28;20436;-71
2022/08/06 01:13:57;;;;;;;15.20;7.27;;;23.60;48.30;;;;;;4971727;28;20430;-71
2022/08/06 01:16:39;;;;;;;18.13;7.30;;;23.60;48.40;;;;;;4969374;28;20190;-71
2022/08/06 01:19:24;;;;;;;17.43;7.00;;;23.30;51.40;;;;;;4970775;28;20203;-71
2022/08/06 01:22:08;;;;;;;17.60;8.63;;;23.20;50.90;;;;;;4963186;28;20458;-73
2022/08/06 01:25:01;;;;;;;12.00;7.60;;;23.10;52.70;;;;;;4968384;28;21034;-70
2022/08/06 01:27:57;;;;;;;15.67;7.67;;;23.10;51.40;;;;;;4967478;28;21225;-72
2022/08/06 01:30:31;;;;;;;19.13;7.87;;;23.10;52.90;;;;;;4963936;28;20475;-71
2022/08/06 01:33:05;;;;;;;17.07;7.87;;;23.20;51.70;;;;;;4963989;28;20489;-71
2022/08/06 01:35:38;;;;;;;17.77;7.90;;;23.20;51.00;;;;;;4964810;28;20467;-70
2022/08/06 01:38:16;;;;;;;15.10;7.00;;;23.10;52.60;;;;;;4962822;28;20538;-71
2022/08/06 01:40:44;;;;;;;13.30;6.57;;;23.20;50.20;;;;;;4968810;28;20439;-71
2022/08/06 01:43:13;;;;;;;15.37;6.53;;;23.20;47.30;;;;;;4968771;28;20444;-71
2022/08/06 01:45:39;;;;;;;11.90;6.30;;;23.20;46.80;;;;;;4967988;28;20440;-72
2022/08/06 01:48:11;;;;;;;14.47;7.00;;;23.10;47.70;;;;;;4969211;28;20434;-71
2022/08/06 01:50:40;;;;;;;15.37;5.80;;;23.20;43.70;;;;;;4970879;28;20444;-71
2022/08/06 01:53:08;;;;;;;15.60;5.97;;;23.10;47.10;;;;;;4965377;28;20444;-73
2022/08/06 01:55:41;;;;;;;20.13;6.20;;;23.20;46.70;;;;;;4969438;28;20444;-70
2022/08/06 01:58:09;;;;;;;15.40;6.77;;;23.20;46.80;;;;;;4972324;28;20460;-71
2022/08/06 02:00:40;;;;;;;18.60;7.17;;;23.20;47.40;;;;;;4971584;28;20944;-71
2022/08/06 02:03:15;;;;;;;14.43;6.00;;;23.10;48.20;;;;;;4973408;28;20528;-71
2022/08/06 02:05:42;;;;;;;12.70;5.87;;;23.20;45.30;;;;;;4972686;28;20437;-72
2022/08/06 02:08:11;;;;;;;18.87;6.23;;;23.10;45.50;;;;;;4974355;28;20540;-70
2022/08/06 02:10:38;;;;;;;12.93;6.30;;;23.10;46.30;;;;;;4972961;28;20436;-72
2022/08/06 02:13:05;;;;;;;8.13;5.40;;;23.10;44.90;;;;;;4972701;28;20811;-71
2022/08/06 02:15:34;;;;;;;16.53;5.83;;;23.10;45.30;;;;;;4974374;28;20437;-72
2022/08/06 02:18:02;;;;;;;11.70;5.37;;;23.00;45.80;;;;;;4971715;28;20972;-72
2022/08/06 02:20:40;;;;;;;10.80;5.70;;;23.10;44.90;;;;;;4968197;28;20506;-73
2022/08/06 02:23:13;;;;;;;17.57;6.80;;;23.20;45.10;;;;;;4956616;28;20436;-72
2022/08/06 02:25:40;;;;;;;12.33;5.97;;;23.00;44.80;;;;;;4963984;28;20992;-70
2022/08/06 02:28:06;;;;;;;14.53;6.17;;;23.00;43.90;;;;;;4956817;28;20435;-71
2022/08/06 02:30:38;;;;;;;13.97;6.47;;;23.00;45.40;;;;;;4970845;28;20457;-71
2022/08/06 02:33:05;;;;;;;12.43;5.90;;;22.90;46.90;;;;;;4970966;28;20439;-71
2022/08/06 02:35:35;;;;;;;14.80;6.20;;;22.90;46.50;;;;;;4973126;28;20963;-70
2022/08/06 02:38:07;;;;;;;18.60;5.87;;;22.90;47.20;;;;;;4974294;28;20971;-71
2022/08/06 02:40:49;;;;;;;27.00;7.63;;;22.90;46.90;;;;;;5002123;23;20861;-73
2022/08/06 02:43:32;;;;;;;22.50;7.40;;;22.80;47.80;;;;;;4982243;28;20428;-74
2022/08/06 02:45:58;;;;;;;19.10;7.17;;;;;;;;;;4989328;28;20425;-76
2022/08/06 02:48:28;;;;;;;18.43;6.40;;;22.90;46.80;;;;;;4988592;28;20469;-76
2022/08/06 02:50:55;;;;;;;31.43;7.60;;;;;;;;;;4988920;28;20973;-75
2022/08/06 02:53:26;;;;;;;23.63;6.37;;;22.80;47.30;;;;;;4988599;28;20432;-76
2022/08/06 02:55:59;;;;;;;18.70;5.93;;;22.90;46.10;;;;;;4992933;28;20420;-75
2022/08/06 02:58:39;;;;;;;25.13;6.50;;;22.60;47.60;;;;;;4990976;28;20446;-75
2022/08/06 03:01:08;;;;;;;13.70;5.83;;;;;;;;;;4989843;28;20456;-75
2022/08/06 03:03:34;;;;;;;18.30;5.80;;;;;;;;;;4991237;28;20437;-75
2022/08/06 03:06:01;;;;;;;17.37;6.57;;;;;;;;;;4991316;28;20428;-74
2022/08/06 03:08:29;;;;;;;18.30;5.70;;;22.80;40.70;;;;;;4985858;28;20459;-75
2022/08/06 03:10:55;;;;;;;22.37;6.97;;;22.90;42.30;;;;;;4989647;28;20463;-74
2022/08/06 03:13:22;;;;;;;17.50;5.73;;;;;;;;;;4990897;28;20433;-74
2022/08/06 03:15:50;;;;;;;14.10;5.03;;;22.90;37.50;;;;;;4991993;28;20998;-75
2022/08/06 03:18:18;;;;;;;15.93;5.70;;;22.80;41.80;;;;;;4993248;28;20460;-75
2022/08/06 03:20:44;;;;;;;16.53;5.33;;;;;;;;;;4992924;28;20437;-74
2022/08/06 03:23:12;;;;;;;25.50;6.20;;;22.90;39.10;;;;;;4991490;28;20486;-75
2022/08/06 03:25:39;;;;;;;14.20;4.93;;;22.80;38.60;;;;;;4992561;28;21001;-75
2022/08/06 03:28:06;;;;;;;21.43;4.90;;;22.90;39.20;;;;;;4984087;28;20492;-74
2022/08/06 03:30:33;;;;;;;18.17;5.63;;;;;;;;;;4985755;28;20450;-75
2022/08/06 03:33:01;;;;;;;16.70;5.40;;;22.70;41.00;;;;;;4986385;28;20441;-74
2022/08/06 03:35:27;;;;;;;12.77;5.37;;;;;;;;;;4989907;28;20431;-75
2022/08/06 03:37:53;;;;;;;12.07;4.83;;;;;;;;;;4991681;28;20441;-75
2022/08/06 03:40:20;;;;;;;19.10;5.80;;;22.80;38.20;;;;;;4985356;28;20510;-74
2022/08/06 03:42:46;;;;;;;13.03;5.20;;;22.70;36.50;;;;;;4986468;28;20494;-75
2022/08/06 03:45:11;;;;;;;12.90;5.27;;;22.60;43.40;;;;;;4991590;28;20447;-75
2022/08/06 03:47:42;;;;;;;13.90;5.30;;;;;;;;;;4991909;28;20203;-74
2022/08/06 03:50:10;;;;;;;16.97;5.10;;;;;;;;;;4987066;28;20238;-74
2022/08/06 03:52:42;;;;;;;17.10;5.13;;;22.60;36.50;;;;;;4991174;28;20446;-75
2022/08/06 03:55:13;;;;;;;14.37;5.00;;;;;;;;;;4992080;28;20435;-74
2022/08/06 03:57:40;;;;;;;17.77;5.03;;;;;;;;;;4989476;28;20445;-74
2022/08/06 04:00:07;;;;;;;11.43;4.77;;;;;;;;;;4988889;28;21023;-74
2022/08/06 04:02:41;;;;;;;24.07;5.53;;;;;;;;;;4991071;28;20435;-74
2022/08/06 04:05:08;;;;;;;14.63;5.20;;;;;;;;;;4991526;28;20431;-75
2022/08/06 04:07:34;;;;;;;14.53;5.10;;;;;;;;;;4991574;28;20917;-74
2022/08/06 04:10:00;;;;;;;25.67;5.20;;;;;;;;;;4992321;28;20902;-74
2022/08/06 04:12:28;;;;;;;18.40;5.40;;;22.80;38.00;;;;;;4990895;28;20432;-74
2022/08/06 04:14:54;;;;;;;8.43;4.43;;;;;;;;;;4991592;28;20496;-74
2022/08/06 04:17:21;;;;;;;22.37;5.13;;;22.70;38.80;;;;;;4990418;28;20517;-75
2022/08/06 04:19:48;;;;;;;18.50;5.33;;;;;;;;;;4991794;28;20478;-74
2022/08/06 04:22:14;;;;;;;14.80;4.87;;;22.60;39.10;;;;;;4991629;28;20439;-74
2022/08/06 04:24:40;;;;;;;15.30;5.30;;;;;;;;;;4992157;28;20489;-75
2022/08/06 04:27:08;;;;;;;18.27;5.47;;;22.40;38.00;;;;;;4993174;28;20189;-75
2022/08/06 04:29:38;;;;;;;16.20;5.40;;;22.60;37.80;;;;;;4991791;28;20487;-76
2022/08/06 04:32:06;;;;;;;19.80;5.30;;;22.70;38.00;;;;;;4989960;28;20456;-75
2022/08/06 04:34:34;;;;;;;17.97;5.97;;;22.70;37.10;;;;;;4990759;28;20942;-75
2022/08/06 04:37:01;;;;;;;23.20;5.00;;;22.70;36.70;;;;;;4990944;28;20497;-75
2022/08/06 04:39:28;;;;;;;21.10;5.30;;;22.60;35.10;;;;;;4980655;28;20480;-74
2022/08/06 04:41:54;;;;;;;13.80;4.87;;;22.60;36.60;;;;;;4988069;28;20456;-75
2022/08/06 04:44:20;;;;;;;16.47;5.20;;;;;;;;;;4990528;28;20461;-75
2022/08/06 04:46:48;;;;;;;13.90;4.60;;;;;;;;;;4989779;28;20462;-75
2022/08/06 04:49:15;;;;;;;10.83;4.43;;;;;;;;;;4990827;28;20883;-75
2022/08/06 04:51:41;;;;;;;18.10;4.83;;;;;;;;;;4987852;28;20417;-74
2022/08/06 04:54:07;;;;;;;15.63;4.83;;;;;;;;;;4989700;28;20501;-76
2022/08/06 04:56:33;;;;;;;17.10;5.00;;;;;;;;;;4983381;28;20936;-74
2022/08/06 04:58:59;;;;;;;19.73;5.53;;;;;;;;;;4980606;28;20446;-76
2022/08/06 05:01:25;;;;;;;14.43;4.90;;;;;;;;;;4989127;28;20468;-76
2022/08/06 05:03:51;;;;;;;15.10;5.10;;;;;;;;;;4990397;28;20468;-76
2022/08/06 05:06:17;;;;;;;16.37;5.20;;;;;;;;;;4989620;28;20471;-76
2022/08/06 05:08:44;;;;;;;18.10;5.53;;;;;;;;;;4989153;28;20525;-76
2022/08/06 05:11:09;;;;;;;13.50;4.70;;;22.50;35.00;;;;;;4984393;28;20511;-75
2022/08/06 05:13:38;;;;;;;24.53;5.87;;;22.50;34.60;;;;;;4970414;28;20530;-75
2022/08/06 05:16:06;;;;;;;18.90;5.80;;;;;;;;;;4990531;28;20186;-75
2022/08/06 05:18:37;;;;;;;23.53;5.30;;;;;;;;;;4990692;28;20506;-75
2022/08/06 05:21:05;;;;;;;18.00;5.50;;;22.60;34.60;;;;;;4984687;28;20762;-76
2022/08/06 05:23:44;;;;;;;18.83;5.37;;;;;;;;;;4989213;28;20975;-76
2022/08/06 05:26:10;;;;;;;16.90;5.20;;;;;;;;;;4988357;28;20451;-75
2022/08/06 05:28:39;;;;;;;15.20;4.90;;;22.80;33.90;;;;;;4990410;28;20492;-75
2022/08/06 05:31:05;;;;;;;24.43;4.97;;;22.60;33.80;;;;;;4989453;28;20534;-76
2022/08/06 05:33:32;;;;;;;21.17;5.73;;;;;;;;;;4991593;28;20629;-75
2022/08/06 05:36:00;;;;;;;22.80;5.33;;;;;;;;;;4991761;28;20254;-76
2022/08/06 05:38:26;;;;;;;17.60;5.10;;;;;;;;;;4992541;28;20432;-76
2022/08/06 05:40:52;;;;;;;25.93;7.50;;;;;;;;;;4993563;28;20468;-76
2022/08/06 05:43:18;;;;;;;17.77;5.13;;;;;;;;;;4991115;28;20487;-75
2022/08/06 05:45:46;;;;;;;22.87;5.37;;;;;;;;;;4994623;28;20527;-75
2022/08/06 05:48:13;;;;;;;21.20;5.67;;;;;;;;;;4992395;28;20527;-76
2022/08/06 05:50:44;;;;;;;21.43;5.67;;;;;;;;;;4992194;28;20506;-75
2022/08/06 05:53:14;;;;;;;21.13;6.07;;;22.80;32.70;;;;;;4986936;28;20440;-76
2022/08/06 05:55:44;;;;;;;12.83;4.80;;;;;;;;;;4991956;28;20499;-76
2022/08/06 05:58:19;;;;;;;13.60;4.23;;;22.90;32.10;;;;;;4991862;28;20442;-76
2022/08/06 06:00:46;;;;;;;15.37;5.00;;;22.90;31.70;;;;;;4993179;28;20460;-75
2022/08/06 06:03:15;;;;;;;21.17;6.20;;;22.90;32.20;;;;;;4990777;28;20448;-75
2022/08/06 06:05:42;;;;;;;14.67;4.57;;;22.90;32.60;;;;;;4993229;28;21237;-76
2022/08/06 06:08:09;;;;;;;16.40;5.30;;;;;;;;;;4993105;28;20452;-75
2022/08/06 06:10:35;;;;;;;17.80;5.10;;;;;;;;;;4992231;28;20468;-75
2022/08/06 06:13:04;;;;;;;19.03;5.27;;;22.80;32.00;;;;;;4992764;28;20813;-76
2022/08/06 06:15:31;;;;;;;20.83;4.90;;;;;;;;;;4994715;28;20439;-76
2022/08/06 06:18:21;;;;;;;16.10;4.77;;;22.80;32.90;;;;;;4991633;28;20473;-76
2022/08/06 06:20:53;;;;;;;18.00;5.57;;;;;;;;;;4989358;28;20464;-75
2022/08/06 06:23:26;;;;;;;17.13;5.30;;;;;;;;;;4993562;28;20478;-76
2022/08/06 06:26:05;;;;;;;14.70;4.67;;;22.90;33.00;;;;;;4993438;28;20463;-76
2022/08/06 06:28:35;;;;;;;15.27;5.13;;;;;;;;;;4987775;28;20968;-76
2022/08/06 06:31:33;;;;;;;25.00;6.67;;;23.00;33.60;;;;;;4993415;28;20519;-76
2022/08/06 06:34:02;;;;;;;22.03;5.97;;;;;;;;;;4991217;28;20467;-76
2022/08/06 06:36:28;;;;;;;16.00;4.90;;;;;;;;;;4993458;28;20435;-76
2022/08/06 06:38:54;;;;;;;10.63;4.67;;;;;;;;;;4991891;28;20445;-76
2022/08/06 06:41:49;;;;;;;15.63;5.23;;;22.90;31.60;;;;;;4992979;28;20999;-76
2022/08/06 06:44:18;;;;;;;10.70;4.53;;;;;;;;;;4990559;28;20452;-76
2022/08/06 06:47:01;;;;;;;15.37;4.80;;;;;;;;;;4993144;28;20939;-76
2022/08/06 06:49:39;;;;;;;21.47;5.50;;;23.00;33.70;;;;;;4989709;28;20499;-76
2022/08/06 06:52:17;;;;;;;13.90;4.70;;;22.80;33.40;;;;;;4993610;28;20911;-76
2022/08/06 06:54:45;;;;;;;16.80;5.13;;;;;;;;;;4988108;28;20418;-76
2022/08/06 06:57:13;;;;;;;14.30;4.90;;;23.00;32.20;;;;;;4988929;28;20455;-76
2022/08/06 06:59:45;;;;;;;20.77;5.97;;;22.90;31.70;;;;;;4986520;28;20453;-76
2022/08/06 07:02:21;;;;;;;19.27;5.13;;;22.60;33.50;;;;;;4990438;28;20944;-76
2022/08/06 07:04:48;;;;;;;10.13;4.70;;;22.70;34.00;;;;;;4986076;28;20901;-76
2022/08/06 07:07:15;;;;;;;24.90;6.70;;;22.70;33.30;;;;;;4985078;28;20449;-76
2022/08/06 07:09:43;;;;;;;17.00;5.50;;;;;;;;;;4991857;28;21004;-76
2022/08/06 07:12:10;;;;;;;17.57;5.00;;;;;;;;;;4991559;28;20438;-76
2022/08/06 07:14:37;;;;;;;24.70;5.60;;;;;;;;;;4990606;28;20501;-76
2022/08/06 07:17:04;;;;;;;13.87;5.00;;;;;;;;;;4987666;28;20444;-76
2022/08/06 07:19:30;;;;;;;21.10;5.60;;;;;;;;;;4992116;28;20469;-76
2022/08/06 07:21:57;;;;;;;15.43;5.53;;;;;;;;;;4991511;28;20435;-75
2022/08/06 07:24:23;;;;;;;15.57;5.60;;;;;;;;;;4988739;28;20440;-76
2022/08/06 07:26:50;;;;;;;25.37;6.33;;;;;;;;;;4984238;28;21313;-76
2022/08/06 07:29:17;;;;;;;17.50;5.50;;;;;;;;;;4984139;28;20475;-76
2022/08/06 07:31:44;;;;;;;22.13;5.87;;;;;;;;;;4982249;28;20458;-76
2022/08/06 07:34:09;;;;;;;17.57;5.20;;;23.60;30.60;;;;;;4989582;28;20531;-76
2022/08/06 07:36:37;;;;;;;17.80;5.77;;;;;;;;;;4992109;28;20670;-76
2022/08/06 07:39:05;;;;;;;27.50;6.43;;;;;;;;;;4989283;28;20200;-76
2022/08/06 07:41:34;;;;;;;12.60;5.00;;;23.00;31.80;;;;;;4985179;28;20462;-76
2022/08/06 07:44:01;;;;;;;19.60;5.53;;;;;;;;;;4991844;28;20428;-76
2022/08/06 07:46:31;;;;;;;16.47;4.93;;;;;;;;;;4984705;28;20504;-75
2022/08/06 07:49:02;;;;;;;15.77;5.87;;;23.50;32.20;;;;;;4984810;28;20465;-75
2022/08/06 07:51:31;;;;;;;17.77;5.43;;;;;;;;;;4972937;28;20819;-76
2022/08/06 07:53:57;;;;;;;24.50;6.20;;;23.60;31.70;;;;;;4982704;28;20432;-75
2022/08/06 07:56:24;;;;;;;19.30;6.70;;;23.30;32.70;;;;;;4984493;28;20416;-75
2022/08/06 07:58:51;;;;;;;20.50;5.60;;;23.20;32.60;;;;;;4990776;28;20443;-75
2022/08/06 08:01:17;;;;;;;17.93;5.90;;;23.40;31.90;;;;;;4993075;28;20447;-75
2022/08/06 08:06:31;;;;;;;14.27;5.17;;;;;;;;;;4991437;28;20440;-75
2022/08/06 08:09:01;;;;;;;17.27;5.87;;;23.30;32.00;;;;;;4990785;28;20984;-75
2022/08/06 08:11:27;;;;;;;23.20;5.97;;;;;;;;;;4986535;28;20976;-72
2022/08/06 08:13:54;;;;;;;17.10;6.00;;;;;;;;;;4988689;28;20443;-73
2022/08/06 08:16:21;;;;;;;26.40;7.33;;;23.80;30.90;;;;;;4991434;28;21010;-72
2022/08/06 08:18:47;;;;;;;16.17;5.80;;;23.80;30.60;;;;;;4992025;28;20440;-72
2022/08/06 08:21:14;;;;;;;25.37;6.70;;;24.00;32.00;;;;;;4987602;28;20471;-73
2022/08/06 08:23:41;;;;;;;17.30;5.90;;;;;;;;;;4991295;28;20465;-73
2022/08/06 08:26:07;;;;;;;18.40;6.43;;;;;;;;;;4991254;28;20466;-74
2022/08/06 08:28:33;;;;;;;22.70;6.27;;;;;;;;;;4990117;28;20476;-73
2022/08/06 08:31:01;;;;;;;23.53;7.43;;;;;;;;;;4991676;28;20500;-73
2022/08/06 08:33:28;;;;;;;15.30;5.67;;;24.70;29.70;;;;;;4988248;28;20428;-73
2022/08/06 08:35:54;;;;;;;22.07;6.17;;;;;;;;;;4980977;28;20510;-74
2022/08/06 08:38:20;;;;;;;20.87;6.23;;;;;;;;;;4989101;28;20439;-73
2022/08/06 08:40:48;;;;;;;17.43;6.23;;;;;;;;;;4991605;28;20456;-74
2022/08/06 08:43:21;;;;;;;19.60;5.77;;;24.70;29.00;;;;;;4991113;28;20458;-72
2022/08/06 08:45:51;;;;;;;18.30;5.40;;;;;;;;;;4992538;28;20497;-72
2022/08/06 08:48:23;;;;;;;21.33;5.43;;;24.60;29.70;;;;;;4990623;28;20437;-71
2022/08/06 08:50:49;;;;;;;29.00;7.73;;;;;;;;;;4991222;28;20448;-72
2022/08/06 08:53:24;;;;;;;24.43;7.23;;;24.30;28.70;;;;;;4977199;28;20803;-71
2022/08/06 08:55:49;;;;;;;19.93;5.43;;;24.30;29.90;;;;;;4987520;28;20425;-73
2022/08/06 08:58:16;;;;;;;15.83;5.50;;;;;;;;;;4990662;28;20429;-72
2022/08/06 09:00:41;;;;;;;22.73;6.03;;;24.10;30.00;;;;;;4991326;28;20208;-73
2022/08/06 09:03:08;;;;;;;23.47;6.20;;;;;;;;;;4983378;28;20436;-72
2022/08/06 09:05:34;;;;;;;20.10;5.97;;;24.30;30.80;;;;;;4989075;28;20181;-73
2022/08/06 09:08:01;;;;;;;25.57;6.10;;;;;;;;;;4986387;28;20432;-72
2022/08/06 09:10:27;;;;;;;13.90;5.00;;;;;;;;;;4983959;28;20500;-73
2022/08/06 09:12:53;;;;;;;26.30;6.00;;;;;;;;;;4982759;28;20927;-73
2022/08/06 09:15:19;;;;;;;6.90;4.90;;;24.70;30.00;;;;;;5005701;23;20511;-73
2022/08/06 09:17:47;;;;;;;11.80;4.70;;;24.70;29.40;;;;;;4967696;28;20437;-68
2022/08/06 09:20:13;;;;;;;8.60;4.73;;;24.80;29.70;;;;;;4970042;28;20273;-68
2022/08/06 09:22:38;;;;;;;8.20;4.97;;;24.90;28.90;;;;;;4967155;28;20567;-69
2022/08/06 09:25:04;;;;;;;7.90;4.40;;;25.00;28.70;;;;;;4966026;28;20210;-70
2022/08/06 09:27:34;;;;;;;6.53;4.60;;;24.90;29.80;;;;;;4970458;28;20253;-70
2022/08/06 09:30:05;;;;;;;11.00;5.40;;;24.80;29.60;;;;;;4971326;28;20523;-69
2022/08/06 09:32:47;;;;;;;7.73;5.00;;;24.80;29.40;;;;;;4965585;28;20496;-69
2022/08/06 09:35:20;;;;;;;6.70;4.80;;;24.80;29.40;;;;;;4972046;28;20464;-68
2022/08/06 09:37:46;;;;;;;10.90;5.10;;;24.50;28.10;;;;;;4963217;28;20453;-68
2022/08/06 09:40:14;;;;;;;6.87;4.90;;;24.20;31.60;;;;;;4972762;28;20424;-68
2022/08/06 09:42:41;;;;;;;5.57;4.90;;;24.30;29.10;;;;;;4965708;28;20442;-70
2022/08/06 09:45:09;;;;;;;6.37;4.70;;;24.20;30.70;;;;;;4972355;28;20493;-68
2022/08/06 09:47:37;;;;;;;7.97;4.73;;;24.10;29.20;;;;;;4970386;28;20441;-69
2022/08/06 09:50:04;;;;;;;8.10;4.97;;;24.40;29.70;;;;;;4971644;28;20456;-70
2022/08/06 09:52:30;;;;;;;11.63;5.40;;;24.50;29.60;;;;;;4969497;28;20517;-68
2022/08/06 09:54:56;;;;;;;9.70;5.00;;;24.80;27.80;;;;;;4966746;28;20528;-69
2022/08/06 09:57:26;;;;;;;7.90;4.40;;;24.40;28.80;;;;;;4970372;28;20645;-68
2022/08/06 09:59:52;;;;;;;12.40;4.50;;;24.60;29.20;;;;;;4971408;28;20178;-68
2022/08/06 10:02:20;;;;;;;11.23;5.07;;;24.90;29.90;;;;;;4970461;28;20430;-69
2022/08/06 10:04:48;;;;;;;7.67;5.60;;;25.10;28.90;;;;;;4970353;28;20409;-69
2022/08/06 10:07:16;;;;;;;7.53;4.97;;;25.30;27.20;;;;;;4970500;28;20444;-69
2022/08/06 10:09:52;;;;;;;11.10;5.47;;;25.20;28.70;;;;;;4972415;28;20465;-69
2022/08/06 10:12:20;;;;;;;11.37;4.90;;;25.20;27.90;;;;;;4953121;28;20437;-69
2022/08/06 10:14:46;;;;;;;13.97;5.97;;;25.50;28.80;;;;;;4952879;28;20406;-69
2022/08/06 10:17:16;;;;;;;7.40;5.03;;;25.70;26.80;;;;;;4952964;28;20816;-69
2022/08/06 10:19:44;;;;;;;7.63;5.00;;;25.60;26.80;;;;;;4956762;28;20534;-69
2022/08/06 10:22:18;;;;;;;5.83;4.90;;;25.70;27.80;;;;;;4956234;28;20473;-69
2022/08/06 10:24:50;;;;;;;9.60;5.07;;;25.60;26.50;;;;;;4956241;28;20559;-68
2022/08/06 10:27:25;;;;;;;9.00;5.87;;;25.60;26.80;;;;;;4960290;28;20420;-69
2022/08/06 10:29:57;;;;;;;9.27;4.70;;;25.50;27.30;;;;;;4975870;28;20453;-69
2022/08/06 10:32:31;;;;;;;6.57;4.77;;;25.40;27.30;;;;;;4975343;28;20409;-69
2022/08/06 10:34:59;;;;;;;17.73;5.60;;;25.50;27.00;;;;;;4975839;28;20394;-69
2022/08/06 10:37:25;;;;;;;22.93;4.57;;;25.40;26.50;;;;;;4975563;28;20421;-69
2022/08/06 10:39:56;;;;;;;7.30;4.90;;;25.60;26.70;;;;;;4975744;28;20414;-69
2022/08/06 10:42:22;;;;;;;6.40;4.93;;;25.60;28.40;;;;;;4975133;28;20406;-71
2022/08/06 10:44:50;;;;;;;7.30;4.87;;;25.30;28.20;;;;;;4974912;28;20424;-69
2022/08/06 10:47:16;;;;;;;7.70;5.03;;;25.30;27.50;;;;;;4975556;28;20406;-71
2022/08/06 10:49:43;;;;;;;6.33;4.50;;;25.60;28.50;;;;;;4975431;28;20488;-71
2022/08/06 10:52:11;;;;;;;5.27;4.30;;;26.00;26.70;;;;;;4974897;28;20421;-69
2022/08/06 10:54:37;;;;;;;6.23;4.33;;;26.10;25.10;;;;;;4975254;28;20402;-69
2022/08/06 10:57:03;;;;;;;7.63;4.43;;;26.20;24.50;;;;;;4974679;28;20441;-69
2022/08/06 10:59:28;;;;;;;6.50;4.10;;;26.40;24.10;;;;;;4975272;28;20417;-69
2022/08/06 11:02:00;;;;;;;7.43;4.73;;;26.60;23.70;;;;;;4974655;28;20558;-71
2022/08/06 11:04:49;;;;;;;10.67;4.10;;;26.40;24.50;;;;;;4975161;28;20646;-69
2022/08/06 11:07:18;;;;;;;6.10;3.93;;;26.60;22.80;;;;;;4975546;28;20452;-69
2022/08/06 11:10:03;;;;;;;6.00;4.40;;;26.30;23.80;;;;;;4975008;28;20506;-69
2022/08/06 11:13:02;;;;;;;5.27;4.07;;;26.70;25.50;;;;;;4974458;28;20394;-69
2022/08/06 11:15:34;;;;;;;6.40;4.17;;;27.10;25.60;;;;;;4971564;28;20457;-69
2022/08/06 11:18:05;;;;;;;5.83;4.03;;;27.40;24.10;;;;;;4974816;28;20393;-69
2022/08/06 11:20:37;;;;;;;10.40;4.30;;;27.10;25.20;;;;;;4973511;28;20434;-68
2022/08/06 11:23:11;;;;;;;7.80;3.90;;;26.40;23.80;;;;;;4974364;28;20422;-71
2022/08/06 11:26:06;;;;;;;10.57;4.40;;;26.60;24.80;;;;;;4974433;28;20425;-69
2022/08/06 11:28:31;;;;;;;7.00;4.37;;;27.00;23.60;;;;;;4933011;29;20935;-69
2022/08/06 11:31:00;;;;;;;5.53;3.90;;;27.20;22.40;;;;;;4933669;29;20430;-69
2022/08/06 11:33:35;;;;;;;5.30;3.27;;;27.50;23.10;;;;;;4935082;29;20203;-69
2022/08/06 11:36:14;;;;;;;7.30;4.13;;;27.60;22.70;;;;;;4933408;29;20459;-71
2022/08/06 11:38:46;;;;;;;6.97;3.50;;;28.80;22.30;;;;;;4941761;29;20541;-70
2022/08/06 11:41:42;;;;;;;13.00;3.30;;;30.00;20.50;;;;;;4944660;29;20425;-70
2022/08/06 11:44:08;;;;;;;5.97;3.20;;;30.60;17.60;;;;;;4939884;29;20977;-70
2022/08/06 11:46:36;;;;;;;5.70;2.77;;;31.10;18.20;;;;;;4946870;29;20499;-69
2022/08/06 11:49:03;;;;;;;10.30;3.27;;;31.60;17.30;;;;;;4938211;29;20945;-70
2022/08/06 11:51:49;;;;;;;5.27;2.73;;;32.50;16.70;;;;;;4944478;29;20930;-70
2022/08/06 11:54:20;;;;;;;2.77;2.57;;;32.80;17.00;;;;;;4933438;29;20423;-69
2022/08/06 11:59:31;;;;;;;4.60;2.67;;;32.50;15.20;;;;;;4934186;29;20430;-70
2022/08/06 12:01:59;;;;;;;6.57;3.03;;;31.50;16.60;;;;;;4936293;29;20955;-69
2022/08/06 12:04:36;;;;;;;5.43;2.80;;;32.10;15.80;;;;;;4946985;28;20445;-69
2022/08/06 12:07:25;;;;;;;8.50;2.87;;;32.70;16.00;;;;;;4974016;28;20434;-70
2022/08/06 12:10:04;;;;;;;7.90;3.00;;;33.30;14.50;;;;;;4965182;28;20473;-69
2022/08/06 12:12:32;;;;;;;3.60;2.73;;;33.50;15.70;;;;;;4954265;29;20446;-72
2022/08/06 12:14:59;;;;;;;4.10;3.00;;;33.90;14.90;;;;;;4973193;28;20464;-70
2022/08/06 12:17:27;;;;;;;6.43;2.70;;;33.90;13.60;;;;;;4972546;28;20433;-70
2022/08/06 12:19:55;;;;;;;3.47;2.67;;;33.50;13.30;;;;;;4972275;28;20448;-70
2022/08/06 12:22:22;;;;;;;7.13;2.97;;;33.90;13.00;;;;;;4972609;28;20421;-70
2022/08/06 12:24:54;;;;;;;4.33;2.90;;;33.90;14.50;;;;;;4971906;28;20426;-72
2022/08/06 12:27:21;;;;;;;7.83;2.97;;;30.50;13.10;;;;;;4972523;28;20957;-70
2022/08/06 12:29:48;;;;;;;4.33;3.10;;;31.20;16.60;;;;;;4972070;28;20473;-68
2022/08/06 12:32:25;;;;;;;3.77;3.00;;;30.00;17.80;;;;;;4971368;28;20996;-69
2022/08/06 12:34:56;;;;;;;5.97;3.40;;;29.30;18.20;;;;;;4968680;28;20426;-72
2022/08/06 12:37:33;;;;;;;5.73;3.30;;;28.20;18.70;;;;;;4973715;28;20429;-68
2022/08/06 12:42:44;;;;;;;9.20;3.73;;;28.40;20.60;;;;;;4967850;28;20774;-69
2022/08/06 12:45:10;;;;;;;3.77;3.10;;;28.90;19.70;;;;;;4971484;28;20525;-70
2022/08/06 12:47:36;;;;;;;6.13;3.13;;;29.10;18.10;;;;;;4965939;28;20178;-70
2022/08/06 12:50:17;;;;;;;4.80;3.53;;;29.00;20.20;;;;;;4970311;28;20492;-70
2022/08/06 12:52:42;;;;;;;4.43;3.27;;;28.60;19.80;;;;;;4965948;28;20543;-69
2022/08/06 12:55:17;;;;;;;12.53;3.40;;;28.50;21.20;;;;;;4967789;28;20454;-73
2022/08/06 12:57:43;;;;;;;4.30;3.40;;;28.30;20.90;;;;;;4969990;28;20203;-70
2022/08/06 13:00:09;;;;;;;4.73;3.40;;;28.30;19.50;;;;;;4968885;28;20928;-70
2022/08/06 13:02:35;;;;;;;4.67;3.20;;;28.70;19.70;;;;;;4968688;28;20185;-73
2022/08/06 13:05:01;;;;;;;5.60;3.47;;;29.20;20.50;;;;;;4969293;28;21008;-70
2022/08/06 13:07:27;;;;;;;4.60;3.33;;;29.10;18.10;;;;;;4967641;28;20182;-71
2022/08/06 13:09:52;;;;;;;5.30;3.27;;;29.50;20.20;;;;;;4964323;28;20462;-69
2022/08/06 13:12:20;;;;;;;4.33;3.33;;;29.70;17.40;;;;;;4972522;28;20177;-70
2022/08/06 13:14:56;;;;;;;7.23;3.47;;;29.90;17.10;;;;;;4971145;28;20182;-69
2022/08/06 13:17:22;;;;;;;4.77;3.13;;;29.10;18.80;;;;;;4969830;28;20444;-70
2022/08/06 13:19:58;;;;;;;8.13;3.77;;;28.80;17.90;;;;;;4971536;28;20461;-69
2022/08/06 13:22:25;;;;;;;3.63;3.33;;;28.80;18.40;;;;;;4967650;28;21248;-69
2022/08/06 13:25:13;;;;;;;11.10;3.30;;;28.90;19.80;;;;;;4967756;28;22569;-69
2022/08/06 13:27:39;;;;;;;6.27;3.20;;;29.10;18.10;;;;;;4969546;28;20524;-69
2022/08/06 13:30:09;;;;;;;6.20;3.63;;;29.10;19.00;;;;;;4966544;28;20552;-70
2022/08/06 13:32:35;;;;;;;3.50;3.17;;;29.30;19.90;;;;;;4967430;28;20182;-69